Time;durP1;ratioP1;P1;durP2;ratioP2;P2;SDS_P1;SDS_P2;PMS_P1;PMS_P2;Temp;Humidity;BMP_temperature;BMP_pressure;BME280_temperature;BME280_humidity;BME280_pressure;Samples;Min_cycle;Max_cycle;Signal;HPM_P1;HPM_P2
2022/02/14 00:01:11;;;;;;;5.43;2.88;;;;;;;;;;5053022;28;20032;-75
2022/02/14 00:03:37;;;;;;;5.68;3.28;;;;;;;;;;5053565;28;20032;-76
2022/02/14 00:06:03;;;;;;;4.57;2.65;;;;;;;;;;5052838;28;20061;-75
2022/02/14 00:08:29;;;;;;;5.10;2.83;;;;;;;;;;5069111;28;20040;-76
2022/02/14 00:10:55;;;;;;;5.57;3.28;;;;;;;;;;5067409;28;20036;-76
2022/02/14 00:13:24;;;;;;;5.20;2.97;;;;;;;;;;5067887;28;20037;-74
2022/02/14 00:15:52;;;;;;;6.85;3.50;;;;;;;;;;5052912;28;20039;-76
2022/02/14 00:18:21;;;;;;;4.35;2.65;;;;;;;;;;5068163;28;20025;-76
2022/02/14 00:20:47;;;;;;;4.38;2.67;;;;;;;;;;5068367;28;20036;-74
2022/02/14 00:23:12;;;;;;;6.25;3.35;;;;;;;;;;5051898;28;20029;-76
2022/02/14 00:25:39;;;;;;;4.93;2.78;;;;;;;;;;5068576;28;20029;-76
2022/02/14 00:28:05;;;;;;;4.45;2.75;;;;;;;;;;5067695;28;20024;-74
2022/02/14 00:30:31;;;;;;;3.80;2.40;;;;;;;;;;5068215;28;20033;-75
2022/02/14 00:32:57;;;;;;;7.90;2.97;;;;;;;;;;5052894;28;20043;-76
2022/02/14 00:35:24;;;;;;;3.85;2.05;;;;;;;;;;5051113;28;20046;-76
2022/02/14 00:37:53;;;;;;;4.03;2.47;;;;;;;;;;5067831;28;20029;-73
2022/02/14 00:40:19;;;;;;;5.57;2.33;;;;;;;;;;5067711;28;20064;-75
2022/02/14 00:42:45;;;;;;;3.72;2.53;;;;;;;;;;5051533;28;20097;-75
2022/02/14 00:45:15;;;;;;;7.63;2.72;;;;;;;;;;5052267;28;20017;-76
2022/02/14 00:47:41;;;;;;;6.00;3.38;;;;;;;;;;5067151;28;20033;-75
2022/02/14 00:50:08;;;;;;;4.25;2.58;;;;;;;;;;5051521;28;20031;-76
2022/02/14 00:52:34;;;;;;;5.30;2.83;;;;;;;;;;5052096;28;20112;-74
2022/02/14 00:55:00;;;;;;;4.95;2.60;;;;;;;;;;5066988;28;20052;-72
2022/02/14 00:57:27;;;;;;;4.05;2.45;;;;;;;;;;5052830;28;20036;-76
2022/02/14 00:59:53;;;;;;;5.30;2.78;;;;;;;;;;5067045;28;20036;-77
2022/02/14 01:02:22;;;;;;;4.35;3.08;;;;;;;;;;5051717;28;20710;-75
2022/02/14 01:04:48;;;;;;;4.95;2.35;;;;;;;;;;5050739;28;20028;-76
2022/02/14 01:07:14;;;;;;;5.70;2.47;;;;;;;;;;5067645;28;20036;-77
2022/02/14 01:09:42;;;;;;;5.55;2.83;;;;;;;;;;5066345;28;20045;-77
2022/02/14 01:12:08;;;;;;;5.63;3.38;;;;;;;;;;5066155;28;20037;-77
2022/02/14 01:14:34;;;;;;;5.82;2.80;;;;;;;;;;5065848;28;20033;-75
2022/02/14 01:17:01;;;;;;;4.55;2.70;;;;;;;;;;5050750;28;20102;-72
2022/02/14 01:19:29;;;;;;;4.40;2.10;;;;;;;;;;5052047;28;20043;-76
2022/02/14 01:21:55;;;;;;;5.75;2.83;;;;;;;;;;5067479;28;20400;-74
2022/02/14 01:24:21;;;;;;;4.78;2.17;;;;;;;;;;5051930;28;21042;-75
2022/02/14 01:26:47;;;;;;;4.60;2.42;;;;;;;;;;5051126;28;20024;-77
2022/02/14 01:29:13;;;;;;;3.50;2.25;;;;;;;;;;5066811;28;20032;-73
2022/02/14 01:31:39;;;;;;;5.43;2.40;;;;;;;;;;5050857;28;20740;-74
2022/02/14 01:34:05;;;;;;;7.90;2.65;;;;;;;;;;5066148;28;20029;-77
2022/02/14 01:36:31;;;;;;;3.40;2.60;;;;;;;;;;5067029;28;20032;-74
2022/02/14 01:38:57;;;;;;;4.72;2.30;;;;;;;;;;5066857;28;20350;-75
2022/02/14 01:41:23;;;;;;;4.03;2.78;;;;;;;;;;5067144;28;20137;-75
2022/02/14 01:43:49;;;;;;;5.72;2.92;;;;;;;;;;5065752;28;20037;-75
2022/02/14 01:46:17;;;;;;;4.13;2.78;;;;;;;;;;5050127;28;20029;-75
2022/02/14 01:48:43;;;;;;;4.55;2.03;;;;;;;;;;5051601;28;20032;-74
2022/02/14 01:51:09;;;;;;;5.22;2.67;;;;;;;;;;5050612;28;20028;-74
2022/02/14 01:53:38;;;;;;;3.40;2.40;;;;;;;;;;5049292;28;20112;-75
2022/02/14 01:56:06;;;;;;;4.45;2.65;;;;;;;;;;5050693;28;20040;-75
2022/02/14 01:58:33;;;;;;;6.32;3.28;;;;;;;;;;5050652;28;20983;-74
2022/02/14 02:00:59;;;;;;;7.60;2.58;;;;;;;;;;5066091;28;20042;-74
2022/02/14 02:03:25;;;;;;;4.40;2.20;;;;;;;;;;5066380;28;20037;-74
2022/02/14 02:05:52;;;;;;;3.60;2.28;;;;;;;;;;5050786;28;20645;-76
2022/02/14 02:08:20;;;;;;;3.92;2.33;;;;;;;;;;5049905;28;20077;-75
2022/02/14 02:10:46;;;;;;;2.85;1.98;;;;;;;;;;5050557;28;20094;-76
2022/02/14 02:13:17;;;;;;;3.97;2.25;;;;;;;;;;5065990;28;20032;-76
2022/02/14 02:15:43;;;;;;;5.35;2.90;;;;;;;;;;5050060;28;20410;-73
2022/02/14 02:18:11;;;;;;;5.55;2.45;;;;;;;;;;5049538;28;20070;-76
2022/02/14 02:20:37;;;;;;;5.65;2.53;;;;;;;;;;5067427;28;20446;-75
2022/02/14 02:23:03;;;;;;;6.63;2.70;;;;;;;;;;5069832;28;20179;-76
2022/02/14 02:25:29;;;;;;;4.03;2.55;;;;;;;;;;5055642;28;20109;-75
2022/02/14 02:27:55;;;;;;;6.82;2.70;;;;;;;;;;5069829;28;20120;-76
2022/02/14 02:30:22;;;;;;;3.50;1.98;;;;;;;;;;5070873;28;20048;-76
2022/02/14 02:32:49;;;;;;;3.03;1.98;;;;;;;;;;5055400;28;20356;-75
2022/02/14 02:35:15;;;;;;;2.53;1.88;;;;;;;;;;5053021;28;20104;-76
2022/02/14 02:37:41;;;;;;;4.88;1.77;;;;;;;;;;5054843;28;20033;-74
2022/02/14 02:40:09;;;;;;;3.38;1.98;;;;;;;;;;5053475;28;20181;-74
2022/02/14 02:42:35;;;;;;;2.38;1.95;;;;;;;;;;5070318;28;20041;-75
2022/02/14 02:45:01;;;;;;;4.80;2.63;;;;;;;;;;5053670;28;20031;-75
2022/02/14 02:47:27;;;;;;;4.07;2.40;;;;;;;;;;5053904;28;20360;-75
2022/02/14 02:49:56;;;;;;;2.97;2.00;;;;;;;;;;5054310;28;20028;-74
2022/02/14 02:52:25;;;;;;;2.38;1.70;;;;;;;;;;5053286;28;20037;-75
2022/02/14 02:54:52;;;;;;;3.72;2.20;;;;;;;;;;5053596;28;20040;-75
2022/02/14 02:57:19;;;;;;;3.25;1.65;;;;;;;;;;5054571;28;20408;-76
2022/02/14 02:59:48;;;;;;;3.50;1.85;;;;;;;;;;5068599;28;20138;-77
2022/02/14 03:02:14;;;;;;;3.90;2.22;;;;;;;;;;5069827;28;21686;-76
2022/02/14 03:04:41;;;;;;;2.85;1.92;;;;;;;;;;5053237;28;20028;-76
2022/02/14 03:07:07;;;;;;;3.35;1.92;;;;;;;;;;5069903;28;20071;-75
2022/02/14 03:09:33;;;;;;;5.10;2.15;;;;;;;;;;5069136;28;20033;-76
2022/02/14 03:11:59;;;;;;;3.33;1.90;;;;;;;;;;5053732;28;20039;-75
2022/02/14 03:14:25;;;;;;;4.90;2.10;;;;;;;;;;5051818;28;20353;-74
2022/02/14 03:16:51;;;;;;;5.75;2.25;;;;;;;;;;5054547;28;20441;-75
2022/02/14 03:19:17;;;;;;;4.50;2.45;;;;;;;;;;5069393;28;20139;-76
2022/02/14 03:21:43;;;;;;;3.75;1.90;;;;;;;;;;5053199;28;20063;-74
2022/02/14 03:24:09;;;;;;;3.58;2.00;;;;;;;;;;5068204;28;20052;-73
2022/02/14 03:26:38;;;;;;;3.10;2.05;;;;;;;;;;5053459;28;20033;-76
2022/02/14 03:29:04;;;;;;;3.60;2.22;;;;;;;;;;5068690;28;20465;-75
2022/02/14 03:31:30;;;;;;;3.92;2.15;;;;;;;;;;5068303;28;20102;-76
2022/02/14 03:33:56;;;;;;;4.25;2.50;;;;;;;;;;5068156;28;20025;-76
2022/02/14 03:36:25;;;;;;;4.75;2.80;;;;;;;;;;5068741;28;20043;-75
2022/02/14 03:38:52;;;;;;;2.83;2.13;;;;;;;;;;5068282;28;20195;-76
2022/02/14 03:41:20;;;;;;;3.20;2.03;;;;;;;;;;5068287;28;20028;-74
2022/02/14 03:43:46;;;;;;;2.78;1.75;;;;;;;;;;5069628;28;20457;-74
2022/02/14 03:46:12;;;;;;;3.78;2.10;;;;;;;;;;5052139;28;20029;-74
2022/02/14 03:48:41;;;;;;;3.90;2.17;;;;;;;;;;5053271;28;20056;-74
2022/02/14 03:51:07;;;;;;;2.55;1.65;;;;;;;;;;5053133;28;20025;-75
2022/02/14 03:53:33;;;;;;;3.95;2.15;;;;;;;;;;5051978;28;20101;-75
2022/02/14 03:55:59;;;;;;;2.67;1.58;;;;;;;;;;5068184;28;20037;-76
2022/02/14 03:58:27;;;;;;;2.95;1.73;;;;;;;;;;5053173;28;20036;-74
2022/02/14 04:00:54;;;;;;;2.67;1.80;;;;;;;;;;5068037;28;20036;-74
2022/02/14 04:03:20;;;;;;;2.25;1.67;;;;;;;;;;5068200;28;20041;-77
2022/02/14 04:05:46;;;;;;;2.55;1.65;;;;;;;;;;5068267;28;20045;-75
2022/02/14 04:08:12;;;;;;;3.72;2.17;;;;;;;;;;5052491;28;20033;-74
2022/02/14 04:10:38;;;;;;;4.05;2.03;;;;;;;;;;5067841;28;20043;-75
2022/02/14 04:13:06;;;;;;;1.83;1.10;;;;;;;;;;5067814;28;20029;-75
2022/02/14 04:15:32;;;;;;;4.28;2.33;;;;;;;;;;5052103;28;20122;-76
2022/02/14 04:17:59;;;;;;;3.72;1.80;;;;;;;;;;5053178;28;20048;-76
2022/02/14 04:20:25;;;;;;;5.38;2.33;;;;;;;;;;5051311;28;20032;-76
2022/02/14 04:22:54;;;;;;;3.25;1.95;;;;;;;;;;5051049;28;20431;-74
2022/02/14 04:25:20;;;;;;;2.90;1.98;;;;;;;;;;5052494;28;21254;-76
2022/02/14 04:27:48;;;;;;;2.83;1.90;;;;;;;;;;5067516;28;20059;-74
2022/02/14 04:30:15;;;;;;;3.00;2.15;;;;;;;;;;5067237;28;21527;-76
2022/02/14 04:32:41;;;;;;;3.88;2.13;;;;;;;;;;5066624;28;20033;-76
2022/02/14 04:35:08;;;;;;;2.85;2.15;;;;;;;;;;5067534;28;20357;-74
2022/02/14 04:37:36;;;;;;;2.63;1.60;;;;;;;;;;5052019;28;20175;-75
2022/02/14 04:40:03;;;;;;;3.20;1.70;;;;;;;;;;5068620;28;20040;-76
2022/02/14 04:42:29;;;;;;;3.47;1.77;;;;;;;;;;5050955;28;20477;-76
2022/02/14 04:44:55;;;;;;;3.35;2.03;;;;;;;;;;5051483;28;20033;-74
2022/02/14 04:47:21;;;;;;;3.15;1.80;;;;;;;;;;5051301;28;20036;-75
2022/02/14 04:49:47;;;;;;;1.98;1.60;;;;;;;;;;5067439;28;20028;-75
2022/02/14 04:52:13;;;;;;;3.35;1.95;;;;;;;;;;5050460;28;20052;-74
2022/02/14 04:54:39;;;;;;;2.15;1.50;;;;;;;;;;5066655;28;20036;-75
2022/02/14 04:57:05;;;;;;;3.70;1.77;;;;;;;;;;5052662;28;20032;-76
2022/02/14 04:59:32;;;;;;;3.60;2.20;;;;;;;;;;5051672;28;20040;-75
2022/02/14 05:01:58;;;;;;;2.47;1.58;;;;;;;;;;5067750;28;20036;-74
2022/02/14 05:04:25;;;;;;;3.42;1.80;;;;;;;;;;5051720;28;20052;-76
2022/02/14 05:06:51;;;;;;;3.95;1.90;;;;;;;;;;5051638;28;20341;-75
2022/02/14 05:09:17;;;;;;;2.20;1.75;;;;;;;;;;5050780;28;20464;-74
2022/02/14 05:11:43;;;;;;;2.30;1.50;;;;;;;;;;5050743;28;20036;-74
2022/02/14 05:14:09;;;;;;;3.03;1.63;;;;;;;;;;5051222;28;20033;-73
2022/02/14 05:16:41;;;;;;;2.00;1.40;;;;;;;;;;5050969;28;20120;-75
2022/02/14 05:19:08;;;;;;;2.35;1.80;;;;;;;;;;5066991;28;20068;-76
2022/02/14 05:21:34;;;;;;;2.17;1.50;;;;;;;;;;5066287;28;20036;-74
2022/02/14 05:24:00;;;;;;;2.50;1.45;;;;;;;;;;5066952;28;20025;-76
2022/02/14 05:26:26;;;;;;;2.30;1.48;;;;;;;;;;5050661;28;20056;-74
2022/02/14 05:28:55;;;;;;;3.17;1.77;;;;;;;;;;5067086;28;20036;-75
2022/02/14 05:31:22;;;;;;;2.67;1.77;;;;;;;;;;5050996;28;20024;-74
2022/02/14 05:33:48;;;;;;;3.33;1.48;;;;;;;;;;5051057;28;20048;-76
2022/02/14 05:36:14;;;;;;;1.65;1.13;;;;;;;;;;5051305;28;20061;-75
2022/02/14 05:38:40;;;;;;;2.60;1.52;;;;;;;;;;5050738;28;20100;-75
2022/02/14 05:41:06;;;;;;;2.53;1.70;;;;;;;;;;5050962;28;20039;-74
2022/02/14 05:43:32;;;;;;;2.63;1.58;;;;;;;;;;5050177;28;20218;-75
2022/02/14 05:45:58;;;;;;;1.90;1.25;;;;;;;;;;5049756;28;20448;-75
2022/02/14 05:48:26;;;;;;;3.20;1.50;;;;;;;;;;5067553;28;20029;-75
2022/02/14 05:50:54;;;;;;;1.88;1.35;;;;;;;;;;5049495;28;20060;-74
2022/02/14 05:53:21;;;;;;;2.83;1.25;;;;;;;;;;5066316;28;20029;-75
2022/02/14 05:55:47;;;;;;;3.40;1.45;;;;;;;;;;5051658;28;20057;-76
2022/02/14 05:58:13;;;;;;;2.47;1.52;;;;;;;;;;5050645;28;20048;-74
2022/02/14 06:00:42;;;;;;;2.55;1.88;;;;;;;;;;5065533;28;20044;-75
2022/02/14 06:03:10;;;;;;;1.98;1.42;;;;;;;;;;5049910;28;20043;-73
2022/02/14 06:05:41;;;;;;;2.35;1.45;;;;;;;;;;5051529;28;20113;-76
2022/02/14 06:08:09;;;;;;;1.90;1.30;;;;;;;;;;5065868;28;20893;-75
2022/02/14 06:10:38;;;;;;;1.90;1.27;;;;;;;;;;5050713;28;20024;-74
2022/02/14 06:13:04;;;;;;;1.95;1.65;;;;;;;;;;5066917;28;20732;-75
2022/02/14 06:15:30;;;;;;;1.38;1.08;;;;;;;;;;5051231;28;20021;-76
2022/02/14 06:17:56;;;;;;;2.70;1.40;;;;;;;;;;5066296;28;20037;-74
2022/02/14 06:20:22;;;;;;;2.05;1.48;;;;;;;;;;5065377;28;20040;-75
2022/02/14 06:22:48;;;;;;;2.03;1.10;;;;;;;;;;5050661;28;20036;-76
2022/02/14 06:25:14;;;;;;;1.80;1.35;;;;;;;;;;5066571;28;20044;-74
2022/02/14 06:27:42;;;;;;;2.17;1.50;;;;;;;;;;5065885;28;20033;-74
2022/02/14 06:30:12;;;;;;;3.90;1.67;;;;;;;;;;5064840;28;20017;-74
2022/02/14 06:32:38;;;;;;;2.40;1.65;;;;;;;;;;5048513;28;20704;-75
2022/02/14 06:35:04;;;;;;;2.00;1.20;;;;;;;;;;5050725;28;20043;-76
2022/02/14 06:37:30;;;;;;;2.05;1.35;;;;;;;;;;5050215;28;20047;-74
2022/02/14 06:39:56;;;;;;;2.28;1.70;;;;;;;;;;5050580;28;20164;-74
2022/02/14 06:42:22;;;;;;;2.70;1.23;;;;;;;;;;5065488;28;20032;-76
2022/02/14 06:44:48;;;;;;;2.15;1.23;;;;;;;;;;5049936;28;20047;-75
2022/02/14 06:47:14;;;;;;;2.47;1.45;;;;;;;;;;5049420;28;20056;-75
2022/02/14 06:49:40;;;;;;;1.58;0.95;;;;;;;;;;5051431;28;20049;-74
2022/02/14 06:52:06;;;;;;;1.48;1.17;;;;;;;;;;5050202;28;20480;-76
2022/02/14 06:54:32;;;;;;;1.60;1.10;;;;;;;;;;5050218;28;20134;-76
2022/02/14 06:56:58;;;;;;;2.22;1.20;;;;;;;;;;5050778;28;20055;-74
2022/02/14 06:59:25;;;;;;;2.50;1.30;;;;;;;;;;5050985;28;20171;-74
2022/02/14 07:01:51;;;;;;;2.90;1.80;;;;;;;;;;5049524;28;20040;-75
2022/02/14 07:04:22;;;;;;;2.13;1.75;;;;;;;;;;5066209;28;20033;-75
2022/02/14 07:06:48;;;;;;;3.42;1.30;;;;;;;;;;5065991;28;20028;-75
2022/02/14 07:09:14;;;;;;;3.97;1.42;;;;;;;;;;5068846;28;20042;-76
2022/02/14 07:11:44;;;;;;;2.88;1.30;;;;;;;;;;5053222;28;20357;-75
2022/02/14 07:14:12;;;;;;;3.05;1.05;;;;;;;;;;5067958;28;20480;-73
2022/02/14 07:16:39;;;;;;;3.00;1.25;;;;;;;;;;5053014;28;20044;-77
2022/02/14 07:19:06;;;;;;;2.38;1.13;;;;;;;;;;5069183;28;21245;-76
2022/02/14 07:21:34;;;;;;;3.47;1.60;;;;;;;;;;5069005;28;20106;-75
2022/02/14 07:24:00;;;;;;;1.40;1.13;;;;;;;;;;5069344;28;21653;-77
2022/02/14 07:26:26;;;;;;;2.47;1.40;;;;;;;;;;5070615;28;20049;-73
2022/02/14 07:28:55;;;;;;;6.82;1.50;;;;;;;;;;5068991;28;20059;-76
2022/02/14 07:31:22;;;;;;;5.07;1.33;;;;;;;;;;5069151;28;20072;-74
2022/02/14 07:33:51;;;;;;;9.82;0.93;;;;;;;;;;5053228;28;20119;-75
2022/02/14 07:36:17;;;;;;;5.32;1.17;;;;;;;;;;5068607;28;20048;-73
2022/02/14 07:38:43;;;;;;;5.00;1.27;;;;;;;;;;5053097;28;20062;-73
2022/02/14 07:41:09;;;;;;;5.35;2.53;;;;;;;;;;5053244;28;20033;-72
2022/02/14 07:43:35;;;;;;;2.53;1.05;;;;;;;;;;5067483;28;20037;-74
2022/02/14 07:46:01;;;;;;;4.22;1.42;;;;;;;;;;5067696;28;20033;-76
2022/02/14 07:48:27;;;;;;;7.80;2.03;;;;;;;;;;5053218;28;20025;-74
2022/02/14 07:50:55;;;;;;;3.97;1.50;;;;;;;;;;5053077;28;20068;-73
2022/02/14 07:53:24;;;;;;;2.58;1.83;;;;;;;;;;5052289;28;20036;-73
2022/02/14 07:55:50;;;;;;;2.88;1.02;;;;;;;;;;5069120;28;20041;-74
2022/02/14 07:58:16;;;;;;;3.13;0.90;;;;;;;;;;5053330;28;20133;-74
2022/02/14 08:00:42;;;;;;;2.40;0.98;;;;;;;;;;5052342;28;20032;-74
2022/02/14 08:03:11;;;;;;;5.07;1.13;;;;;;;;;;5051639;28;20037;-76
2022/02/14 08:05:37;;;;;;;2.45;1.20;;;;;;;;;;5052614;28;20025;-73
2022/02/14 08:08:03;;;;;;;5.43;1.90;;;;;;;;;;5068940;28;20056;-74
2022/02/14 08:10:29;;;;;;;2.08;1.23;;;;;;;;;;5052035;28;20090;-76
2022/02/14 08:12:55;;;;;;;2.80;1.00;;;;;;;;;;5052178;28;20498;-75
2022/02/14 08:15:23;;;;;;;6.40;1.13;;;;;;;;;;5053945;28;20889;-73
2022/02/14 08:17:50;;;;;;;5.10;2.00;;;;;;;;;;5052202;28;20358;-75
2022/02/14 08:20:16;;;;;;;2.63;1.52;;;;;;;;;;5066373;28;20037;-74
2022/02/14 08:22:46;;;;;;;3.40;1.38;;;;;;;;;;5052292;28;20033;-74
2022/02/14 08:25:16;;;;;;;3.10;1.20;;;;;;;;;;5052700;28;20698;-75
2022/02/14 08:27:42;;;;;;;6.80;1.95;;;;;;;;;;5052010;28;20128;-76
2022/02/14 08:30:09;;;;;;;1.10;0.80;;;;;;;;;;5052003;28;20167;-75
2022/02/14 08:32:35;;;;;;;1.77;1.10;;;;;;;;;;5051878;28;20051;-75
2022/02/14 08:35:01;;;;;;;2.13;0.80;;;;;;;;;;5068225;28;20075;-75
2022/02/14 08:37:27;;;;;;;8.20;1.55;;;;;;;;;;5051898;28;20556;-75
2022/02/14 08:39:55;;;;;;;1.67;0.95;;;;;;;;;;5067333;28;20094;-74
2022/02/14 08:42:21;;;;;;;1.75;0.82;;;;;;;;;;5052382;28;20028;-76
2022/02/14 08:44:53;;;;;;;3.75;0.82;;;;;;;;;;5050810;28;20055;-74
2022/02/14 08:47:19;;;;;;;3.75;0.88;;;;;;;;;;5051656;28;20115;-76
2022/02/14 08:49:46;;;;;;;1.70;0.80;;;;;;;;;;5068191;28;20032;-76
2022/02/14 08:52:15;;;;;;;4.57;0.93;;;;;;;;;;5052232;28;20029;-74
2022/02/14 08:54:41;;;;;;;4.30;1.45;;;;;;;;;;5051650;28;20120;-76
2022/02/14 08:57:07;;;;;;;4.43;0.80;;;;;;;;;;5050611;28;20341;-73
2022/02/14 08:59:33;;;;;;;1.42;0.88;;;;;;;;;;5067829;28;20036;-75
2022/02/14 09:02:01;;;;;;;2.47;1.13;;;;;;;;;;5068000;28;20040;-74
2022/02/14 09:04:27;;;;;;;5.15;1.17;;;;;;;;;;5051001;28;20032;-75
2022/02/14 09:06:54;;;;;;;4.82;1.52;;;;;;;;;;5050249;28;20094;-75
2022/02/14 09:09:20;;;;;;;2.53;1.95;;;;;;;;;;5050339;28;20091;-76
2022/02/14 09:11:46;;;;;;;1.52;1.17;;;;;;;;;;5049609;28;20060;-75
2022/02/14 09:14:15;;;;;;;2.33;1.20;;;;;;;;;;5050575;28;20051;-75
2022/02/14 09:16:42;;;;;;;1.25;1.05;;;;;;;;;;5050632;28;20044;-75
2022/02/14 09:19:08;;;;;;;4.68;0.90;;;;;;;;;;5050499;28;20047;-75
2022/02/14 09:21:35;;;;;;;3.72;0.90;;;;;;;;;;5067233;28;20055;-74
2022/02/14 09:24:01;;;;;;;3.63;0.70;;;;;;;;;;5051645;28;20032;-74
2022/02/14 09:26:28;;;;;;;3.90;0.85;;;;;;;;;;5051088;28;20043;-75
2022/02/14 09:28:56;;;;;;;2.10;0.88;;;;;;;;;;5065555;28;20052;-75
2022/02/14 09:31:24;;;;;;;1.00;0.65;;;;;;;;;;5050104;28;20021;-74
2022/02/14 09:33:53;;;;;;;6.95;0.98;;;;;;;;;;5050997;28;20060;-73
2022/02/14 09:36:19;;;;;;;1.75;1.15;;;;;;;;;;5050460;28;20097;-74
2022/02/14 09:38:48;;;;;;;2.30;1.00;;;;;;;;;;5050844;28;20021;-75
2022/02/14 09:41:16;;;;;;;1.35;1.25;;;;;;;;;;5050007;28;20036;-73
2022/02/14 09:43:44;;;;;;;1.73;0.80;;;;;;;;;;5050444;28;20119;-75
2022/02/14 09:46:15;;;;;;;2.47;0.80;;;;;;;;;;5050788;28;20047;-74
2022/02/14 09:48:42;;;;;;;2.00;0.88;;;;;;;;;;5050751;28;20369;-75
2022/02/14 09:51:16;;;;;;;1.83;1.10;;;;;;;;;;5050329;28;20049;-73
2022/02/14 09:53:42;;;;;;;5.95;0.98;;;;;;;;;;5049958;28;20602;-74
2022/02/14 09:56:11;;;;;;;2.28;0.80;;;;;;;;;;5066312;28;20116;-75
2022/02/14 09:58:38;;;;;;;2.72;1.38;;;;;;;;;;5065514;28;20041;-74
2022/02/14 10:01:04;;;;;;;1.55;0.63;;;;;;;;;;5050089;28;20064;-75
2022/02/14 10:03:30;;;;;;;2.83;0.90;;;;;;;;;;5065502;28;20075;-75
2022/02/14 10:05:57;;;;;;;2.78;0.85;;;;;;;;;;5051017;28;20333;-73
2022/02/14 10:08:23;;;;;;;5.65;0.90;;;;;;;;;;5049744;28;20048;-74
2022/02/14 10:10:50;;;;;;;2.55;1.13;;;;;;;;;;5049963;28;20403;-74
2022/02/14 10:13:35;;;;;;;0.77;0.43;;;;;;;;;;5049621;28;20082;-75
2022/02/14 10:16:02;;;;;;;2.83;0.68;;;;;;;;;;5050587;28;20033;-74
2022/02/14 10:18:30;;;;;;;3.50;0.95;;;;;;;;;;5050940;28;20036;-75
2022/02/14 10:21:15;;;;;;;1.20;0.60;;;;;;;;;;5049365;28;20037;-74
2022/02/14 10:24:01;;;;;;;2.80;0.50;;;;;;;;;;5066434;28;20905;-75
2022/02/14 10:26:28;;;;;;;1.77;1.15;;;;;;;;;;5050922;28;20021;-76
2022/02/14 10:28:54;;;;;;;1.17;0.73;;;;;;;;;;5049538;28;20039;-73
2022/02/14 10:31:20;;;;;;;1.73;0.57;;;;;;;;;;5050560;28;20043;-74
2022/02/14 10:33:49;;;;;;;2.80;0.75;;;;;;;;;;5050873;28;20033;-75
2022/02/14 10:36:29;;;;;;;0.85;0.63;;;;;;;;;;5050078;28;20112;-73
2022/02/14 10:38:56;;;;;;;1.98;0.60;;;;;;;;;;5065371;28;20039;-75
2022/02/14 10:41:27;;;;;;;1.90;0.50;;;;;;;;;;5049557;28;20028;-75
2022/02/14 10:43:53;;;;;;;2.70;0.77;;;;;;;;;;5053054;28;20097;-76
2022/02/14 10:46:20;;;;;;;3.30;0.70;;;;;;;;;;5054023;28;20028;-74
2022/02/14 10:48:48;;;;;;;4.57;0.80;;;;;;;;;;5069877;28;20460;-75
2022/02/14 10:51:19;;;;;;;5.03;0.80;;;;;;;;;;5054004;28;20128;-74
2022/02/14 10:53:46;;;;;;;1.48;0.77;;;;;;;;;;5053136;28;20033;-75
2022/02/14 10:56:13;;;;;;;1.00;0.70;;;;;;;;;;5054011;28;20032;-75
2022/02/14 10:58:42;;;;;;;1.13;0.70;;;;;;;;;;5053548;28;20111;-75
2022/02/14 11:01:11;;;;;;;1.95;0.60;;;;;;;;;;5069901;28;20532;-74
2022/02/14 11:03:45;;;;;;;1.65;0.52;;;;;;;;;;5068289;28;20041;-75
2022/02/14 11:06:13;;;;;;;1.42;0.55;;;;;;;;;;5052711;28;20029;-75
2022/02/14 11:08:39;;;;;;;2.03;0.80;;;;;;;;;;5053303;28;20028;-77
2022/02/14 11:11:08;;;;;;;1.58;0.82;;;;;;;;;;5052947;28;20077;-76
2022/02/14 11:13:38;;;;;;;3.42;0.77;;;;;;;;;;5052218;28;20075;-75
2022/02/14 11:16:09;;;;;;;1.80;0.80;;;;;;;;;;5069585;28;20036;-77
2022/02/14 11:18:39;;;;;;;1.02;0.70;;;;;;;;;;5068024;28;20059;-74
2022/02/14 11:21:05;;;;;;;2.30;0.73;;;;;;;;;;5068587;28;20037;-77
2022/02/14 11:23:34;;;;;;;0.50;0.38;;;;;;;;;;5053383;28;20028;-75
2022/02/14 11:26:04;;;;;;;1.38;0.43;;;;;;;;;;5053167;28;20109;-77
2022/02/14 11:28:36;;;;;;;1.25;0.70;;;;;;;;;;5068826;28;20028;-75
2022/02/14 11:31:02;;;;;;;;;;;;;;;;;;5069492;28;20119;-77
2022/02/14 11:33:28;;;;;;;0.82;0.52;;;;;;;;;;5052749;28;20249;-77
2022/02/14 11:36:23;;;;;;;1.27;0.93;;;;;;;;;;5068571;28;20094;-77
2022/02/14 11:38:50;;;;;;;1.25;0.68;;;;;;;;;;5051586;28;20044;-75
2022/02/14 11:41:24;;;;;;;1.45;1.00;;;;;;;;;;5068224;28;20035;-76
2022/02/14 11:43:50;;;;;;;1.63;0.60;;;;;;;;;;5053370;28;20035;-76
2022/02/14 11:46:18;;;;;;;1.30;0.63;;;;;;;;;;5051785;28;20434;-77
2022/02/14 11:48:45;;;;;;;3.05;0.52;;;;;;;;;;5051509;28;20056;-77
2022/02/14 11:51:12;;;;;;;2.75;1.00;;;;;;;;;;5053229;28;20033;-76
2022/02/14 11:53:44;;;;;;;1.55;0.60;;;;;;;;;;5052757;28;20039;-77
2022/02/14 11:56:10;;;;;;;;;;;;;;;;;;5053584;28;20097;-77
2022/02/14 11:58:55;;;;;;;2.03;0.70;;;;;;;;;;5068341;28;19952;-75
2022/02/14 12:01:21;;;;;;;1.33;0.40;;;;;;;;;;5052245;28;20033;-74
2022/02/14 12:03:51;;;;;;;3.55;0.43;;;;;;;;;;5068759;28;20036;-77
2022/02/14 12:06:17;;;;;;;2.53;0.50;;;;;;;;;;5052371;28;20032;-75
2022/02/14 12:09:07;;;;;;;4.05;0.43;;;;;;;;;;5052691;28;20029;-76
2022/02/14 12:11:48;;;;;;;0.95;0.43;;;;;;;;;;5052211;28;20047;-75
2022/02/14 12:14:24;;;;;;;0.47;0.30;;;;;;;;;;5052067;28;20029;-77
2022/02/14 12:22:46;;;;;;;2.72;0.85;;;;;;;;;;5052052;28;20071;-75
2022/02/14 12:25:12;;;;;;;1.95;0.45;;;;;;;;;;5051670;28;20040;-77
2022/02/14 12:27:38;;;;;;;1.02;0.57;;;;;;;;;;5052601;28;20105;-74
2022/02/14 12:30:20;;;;;;;2.10;0.55;;;;;;;;;;5052216;28;20078;-75
2022/02/14 12:33:08;;;;;;;0.60;0.40;;;;;;;;;;5068201;28;20047;-74
2022/02/14 12:35:41;;;;;;;1.35;0.40;;;;;;;;;;5052163;28;20821;-75
2022/02/14 12:38:07;;;;;;;1.15;0.30;;;;;;;;;;5050455;28;20056;-77
2022/02/14 12:40:56;;;;;;;0.98;0.63;;;;;;;;;;5067716;28;20125;-76
2022/02/14 12:43:25;;;;;;;3.30;1.58;;;;;;;;;;5051783;28;20028;-77
2022/02/14 12:45:53;;;;;;;0.95;0.70;;;;;;;;;;5050389;28;20024;-75
2022/02/14 12:48:33;;;;;;;2.08;0.88;;;;;;;;;;5066800;28;20028;-77
2022/02/14 12:51:04;;;;;;;0.38;0.30;;;;;;;;;;5066732;28;20033;-76
2022/02/14 12:53:30;;;;;;;0.60;0.40;;;;;;;;;;5050787;28;20079;-76
2022/02/14 12:56:13;;;;;;;2.33;0.82;;;;;;;;;;5051128;28;20032;-75
2022/02/14 12:58:59;;;;;;;1.98;0.52;;;;;;;;;;5066872;28;20082;-75
2022/02/14 13:01:48;;;;;;;1.23;0.47;;;;;;;;;;5051558;28;20032;-74
2022/02/14 13:04:17;;;;;;;0.98;0.50;;;;;;;;;;5052627;28;21757;-75
2022/02/14 13:06:50;;;;;;;0.43;0.30;;;;;;;;;;5051017;28;20366;-75
2022/02/14 13:09:23;;;;;;;0.40;0.30;;;;;;;;;;5050802;28;20090;-74
2022/02/14 13:11:50;;;;;;;2.60;0.75;;;;;;;;;;5050489;28;20050;-76
2022/02/14 13:14:36;;;;;;;1.13;0.60;;;;;;;;;;5052457;28;20036;-75
2022/02/14 13:17:05;;;;;;;1.35;0.63;;;;;;;;;;5050788;28;20047;-75
2022/02/14 13:19:32;;;;;;;3.30;0.52;;;;;;;;;;5051461;28;20089;-75
2022/02/14 13:22:01;;;;;;;1.77;0.52;;;;;;;;;;5066020;28;20040;-76
2022/02/14 13:24:28;;;;;;;1.23;0.57;;;;;;;;;;5050550;28;20029;-74
2022/02/14 13:27:05;;;;;;;1.05;0.68;;;;;;;;;;5049655;28;20071;-76
2022/02/14 13:29:49;;;;;;;2.28;0.68;;;;;;;;;;5065945;28;20044;-76
2022/02/14 13:32:31;;;;;;;0.60;0.50;;;;;;;;;;5066584;28;21646;-75
2022/02/14 13:35:03;;;;;;;2.08;0.65;;;;;;;;;;5050875;28;20028;-77
2022/02/14 13:37:41;;;;;;;0.75;0.40;;;;;;;;;;5050034;28;20040;-75
2022/02/14 13:40:21;;;;;;;1.13;0.40;;;;;;;;;;5049324;28;20460;-75
2022/02/14 13:42:47;;;;;;;0.73;0.45;;;;;;;;;;5067062;28;20102;-76
2022/02/14 13:45:13;;;;;;;0.73;0.40;;;;;;;;;;5050306;28;20032;-75
2022/02/14 13:47:39;;;;;;;3.67;0.82;;;;;;;;;;5065889;28;20437;-73
2022/02/14 13:50:22;;;;;;;1.13;0.63;;;;;;;;;;5051397;28;20075;-76
2022/02/14 13:52:48;;;;;;;1.33;0.65;;;;;;;;;;5050106;28;20113;-76
2022/02/14 13:55:17;;;;;;;0.40;0.30;;;;;;;;;;5050768;28;20104;-75
2022/02/14 13:57:47;;;;;;;0.60;0.38;;;;;;;;;;5051131;28;20040;-75
2022/02/14 14:00:32;;;;;;;3.35;0.40;;;;;;;;;;5050345;28;20038;-75
2022/02/14 14:03:08;;;;;;;0.57;0.55;;;;;;;;;;5050940;28;20029;-76
2022/02/14 14:05:44;;;;;;;0.55;0.47;;;;;;;;;;5050387;28;20031;-74
2022/02/14 14:08:14;;;;;;;0.80;0.30;;;;;;;;;;5065886;28;20495;-76
2022/02/14 14:10:43;;;;;;;0.50;0.25;;;;;;;;;;5050446;28;20041;-75
2022/02/14 14:13:13;;;;;;;0.85;0.40;;;;;;;;;;5065358;28;20056;-75
2022/02/14 14:15:39;;;;;;;0.68;0.35;;;;;;;;;;5051249;28;20029;-76
2022/02/14 14:18:06;;;;;;;0.50;0.30;;;;;;;;;;5049752;28;20043;-74
2022/02/14 14:20:33;;;;;;;1.90;0.93;;;;;;;;;;5049994;28;20126;-75
2022/02/14 14:22:59;;;;;;;1.45;0.50;;;;;;;;;;5050549;28;20068;-76
2022/02/14 14:25:28;;;;;;;3.72;0.50;;;;;;;;;;5065907;28;20591;-74
2022/02/14 14:27:54;;;;;;;1.10;0.70;;;;;;;;;;5050058;28;20021;-75
2022/02/14 14:30:20;;;;;;;1.05;0.60;;;;;;;;;;5049969;28;20033;-75
2022/02/14 14:32:47;;;;;;;0.90;0.60;;;;;;;;;;5050752;28;20043;-76
2022/02/14 14:35:16;;;;;;;0.82;0.65;;;;;;;;;;5050155;28;20107;-76
2022/02/14 14:37:43;;;;;;;0.40;0.40;;;;;;;;;;5032931;28;20139;-74
2022/02/14 14:40:10;;;;;;;0.57;0.20;;;;;;;;;;5050090;28;20345;-74
2022/02/14 14:42:36;;;;;;;0.77;0.50;;;;;;;;;;5050765;28;20060;-75
2022/02/14 14:45:02;;;;;;;0.50;0.40;;;;;;;;;;5049439;28;21675;-74
2022/02/14 14:47:28;;;;;;;0.77;0.30;;;;;;;;;;5050428;28;20024;-76
2022/02/14 14:49:55;;;;;;;0.68;0.32;;;;;;;;;;5050381;28;20025;-75
2022/02/14 14:52:23;;;;;;;0.98;0.40;;;;;;;;;;5049692;28;20028;-74
2022/02/14 14:54:49;;;;;;;0.68;0.47;;;;;;;;;;5049246;28;20122;-75